Time;durP1;ratioP1;P1;durP2;ratioP2;P2;SDS_P1;SDS_P2;PMS_P1;PMS_P2;Temp;Humidity;BMP_temperature;BMP_pressure;BME280_temperature;BME280_humidity;BME280_pressure;Samples;Min_cycle;Max_cycle;Signal;HPM_P1;HPM_P2
2022/02/15 00:01:19;;;;;;;3.30;1.30;;;7.10;95.70;;;;;;5053525;28;20469;-79
2022/02/15 00:03:44;;;;;;;5.80;1.30;;;7.00;95.80;;;;;;5053475;28;20040;-79
2022/02/15 00:06:10;;;;;;;4.07;1.33;;;7.00;95.90;;;;;;5052307;28;20074;-78
2022/02/15 00:08:36;;;;;;;6.17;1.70;;;7.10;96.30;;;;;;5053263;28;20037;-79
2022/02/15 00:11:02;;;;;;;3.47;1.70;;;7.10;96.20;;;;;;5052094;28;20032;-79
2022/02/15 00:13:27;;;;;;;4.13;1.23;;;7.10;96.50;;;;;;5053424;28;20064;-79
2022/02/15 00:15:53;;;;;;;4.33;1.67;;;7.10;96.50;;;;;;5052071;28;20035;-79
2022/02/15 00:18:18;;;;;;;5.17;1.93;;;7.10;96.50;;;;;;5053166;28;20035;-78
2022/02/15 00:20:44;;;;;;;7.03;2.50;;;7.10;96.60;;;;;;5052106;28;20057;-79
2022/02/15 00:23:10;;;;;;;6.63;2.20;;;7.10;96.80;;;;;;5053215;28;20033;-81
2022/02/15 00:25:37;;;;;;;6.13;2.30;;;7.10;96.70;;;;;;5053368;28;20090;-79
2022/02/15 00:28:03;;;;;;;8.60;2.73;;;7.20;96.80;;;;;;5053114;28;20370;-81
2022/02/15 00:30:29;;;;;;;6.17;2.43;;;7.20;97.40;;;;;;5053216;28;20533;-80
2022/02/15 00:32:54;;;;;;;6.93;2.87;;;7.20;97.20;;;;;;5053292;28;20110;-80
2022/02/15 00:35:20;;;;;;;9.90;3.47;;;7.10;97.10;;;;;;5053147;28;20037;-79
2022/02/15 00:37:46;;;;;;;8.20;3.53;;;7.20;97.20;;;;;;5053191;28;20025;-78
2022/02/15 00:40:13;;;;;;;10.53;3.53;;;7.20;97.20;;;;;;5054896;28;20033;-78
2022/02/15 00:42:39;;;;;;;12.47;4.17;;;7.20;97.10;;;;;;5057563;28;20025;-78
2022/02/15 00:45:06;;;;;;;9.47;3.67;;;7.20;97.10;;;;;;5055940;28;20087;-78
2022/02/15 00:47:32;;;;;;;9.20;3.67;;;7.20;97.00;;;;;;5057669;28;20032;-78
2022/02/15 00:49:58;;;;;;;9.73;4.00;;;7.30;97.10;;;;;;5056966;28;20115;-78
2022/02/15 00:52:23;;;;;;;12.03;4.17;;;7.20;97.00;;;;;;5057829;28;20029;-79
2022/02/15 00:54:49;;;;;;;12.37;4.10;;;7.20;97.10;;;;;;5056687;28;20653;-79
2022/02/15 00:57:16;;;;;;;9.23;3.80;;;7.20;97.20;;;;;;5039029;28;20367;-79
2022/02/15 00:59:42;;;;;;;9.97;4.03;;;7.20;97.20;;;;;;5056815;28;20048;-78
2022/02/15 01:02:08;;;;;;;10.10;4.03;;;7.20;97.30;;;;;;5056690;28;20029;-79
2022/02/15 01:04:34;;;;;;;9.47;4.60;;;7.20;97.50;;;;;;5056707;28;20401;-79
2022/02/15 01:06:59;;;;;;;8.33;4.77;;;7.20;97.40;;;;;;5056829;28;20112;-81
2022/02/15 01:09:25;;;;;;;10.90;4.80;;;7.30;97.60;;;;;;5022244;28;20025;-78
2022/02/15 01:11:50;;;;;;;12.43;4.70;;;7.30;97.60;;;;;;5038847;28;20025;-79
2022/02/15 01:14:18;;;;;;;13.97;4.63;;;7.20;97.50;;;;;;5056873;28;20107;-78
2022/02/15 01:16:44;;;;;;;9.27;5.00;;;7.30;97.60;;;;;;5038736;28;20394;-80
2022/02/15 01:19:10;;;;;;;11.50;4.53;;;7.20;97.70;;;;;;5038675;28;20037;-79
2022/02/15 01:21:35;;;;;;;10.63;4.50;;;7.20;97.60;;;;;;5056410;28;20039;-80
2022/02/15 01:24:01;;;;;;;12.77;5.37;;;7.20;97.60;;;;;;5056298;28;20047;-79
2022/02/15 01:26:26;;;;;;;10.77;4.67;;;7.20;97.50;;;;;;5056304;28;20075;-79
2022/02/15 01:28:52;;;;;;;16.13;5.17;;;7.20;97.60;;;;;;5038257;28;20062;-78
2022/02/15 01:31:18;;;;;;;12.27;5.13;;;7.10;97.70;;;;;;5056610;28;20052;-79
2022/02/15 01:33:44;;;;;;;12.13;4.50;;;7.10;97.60;;;;;;5056253;28;20056;-79
2022/02/15 01:36:09;;;;;;;10.00;4.97;;;7.10;97.60;;;;;;5056283;28;20102;-80
2022/02/15 01:38:35;;;;;;;10.43;5.20;;;7.20;97.60;;;;;;5038533;28;20037;-79
2022/02/15 01:41:01;;;;;;;11.73;4.70;;;7.20;97.60;;;;;;5038356;28;20056;-78
2022/02/15 01:43:27;;;;;;;13.80;5.30;;;7.20;97.60;;;;;;5038449;28;20083;-79
2022/02/15 01:45:53;;;;;;;15.47;6.03;;;7.10;97.80;;;;;;5056035;28;20063;-78
2022/02/15 01:48:19;;;;;;;15.80;6.03;;;7.10;98.00;;;;;;5055934;28;20047;-80
2022/02/15 01:50:45;;;;;;;18.00;6.80;;;7.10;98.10;;;;;;5055467;28;20033;-79
2022/02/15 01:53:10;;;;;;;14.00;6.07;;;7.20;98.00;;;;;;5038190;28;20497;-80
2022/02/15 01:55:36;;;;;;;14.20;5.47;;;7.10;97.90;;;;;;5056004;28;20049;-78
2022/02/15 01:58:03;;;;;;;13.47;5.97;;;7.10;97.90;;;;;;5055878;28;20079;-78
2022/02/15 02:00:28;;;;;;;10.23;4.77;;;7.10;97.90;;;;;;5055696;28;20025;-78
2022/02/15 02:02:54;;;;;;;11.87;5.30;;;7.20;97.90;;;;;;5038072;28;20033;-79
2022/02/15 02:08:04;;;;;;;9.23;4.60;;;7.20;97.90;;;;;;5040875;28;20079;-79
2022/02/15 02:10:30;;;;;;;12.60;5.77;;;7.20;97.70;;;;;;5055149;28;20032;-79
2022/02/15 02:12:55;;;;;;;9.90;4.43;;;7.10;97.70;;;;;;5055565;28;20094;-79
2022/02/15 02:15:24;;;;;;;11.87;5.50;;;7.20;97.80;;;;;;5021604;28;20064;-78
2022/02/15 02:17:51;;;;;;;11.57;4.87;;;7.10;97.80;;;;;;5055395;28;20029;-78
2022/02/15 02:20:18;;;;;;;11.20;5.07;;;7.20;97.90;;;;;;5055333;28;20036;-78
2022/02/15 02:22:44;;;;;;;13.73;5.23;;;7.00;97.70;;;;;;5037829;28;20032;-78
2022/02/15 02:25:12;;;;;;;13.03;4.63;;;7.10;98.10;;;;;;5055314;28;20040;-78
2022/02/15 02:27:39;;;;;;;11.97;4.63;;;7.10;97.80;;;;;;5055287;28;20028;-79
2022/02/15 02:30:05;;;;;;;9.50;4.00;;;7.10;97.90;;;;;;5055326;28;20063;-78
2022/02/15 02:32:31;;;;;;;12.23;4.67;;;7.10;97.80;;;;;;5055232;28;20074;-78
2022/02/15 02:34:59;;;;;;;9.83;4.50;;;7.10;97.80;;;;;;5037550;28;20029;-79
2022/02/15 02:37:25;;;;;;;8.60;3.23;;;7.10;97.80;;;;;;5055523;28;20033;-79
2022/02/15 02:39:52;;;;;;;9.00;3.87;;;7.10;97.80;;;;;;5054991;28;20086;-79
2022/02/15 02:42:21;;;;;;;11.17;3.63;;;7.10;98.00;;;;;;5054962;28;20485;-79
2022/02/15 02:44:48;;;;;;;9.90;3.67;;;7.10;98.00;;;;;;5054884;28;20028;-80
2022/02/15 02:47:14;;;;;;;7.07;2.57;;;7.00;98.00;;;;;;5054874;28;20126;-79
2022/02/15 02:49:40;;;;;;;9.00;3.30;;;7.00;98.10;;;;;;5036888;28;20071;-79
2022/02/15 02:52:06;;;;;;;14.07;3.80;;;7.00;98.20;;;;;;5055063;28;20529;-79
2022/02/15 02:54:32;;;;;;;5.87;2.00;;;7.00;98.30;;;;;;5054814;28;20112;-79
2022/02/15 02:57:03;;;;;;;7.67;2.27;;;7.00;98.30;;;;;;5054478;28;20044;-78
2022/02/15 02:59:29;;;;;;;7.73;2.03;;;7.00;98.30;;;;;;5054566;28;20031;-78
2022/02/15 03:01:55;;;;;;;9.57;2.67;;;7.10;98.30;;;;;;5054085;28;20029;-79
2022/02/15 03:04:21;;;;;;;8.00;2.40;;;7.00;98.40;;;;;;5036683;28;20035;-79
2022/02/15 03:06:47;;;;;;;10.60;2.17;;;7.00;98.40;;;;;;5036636;28;20029;-79
2022/02/15 03:09:12;;;;;;;6.17;2.07;;;7.00;98.30;;;;;;5054318;28;20037;-78
2022/02/15 03:11:38;;;;;;;9.67;2.13;;;7.00;98.30;;;;;;5054346;28;20412;-79
2022/02/15 03:14:04;;;;;;;7.63;2.60;;;6.90;98.30;;;;;;5036364;28;20056;-79
2022/02/15 03:16:30;;;;;;;8.70;2.40;;;6.90;98.40;;;;;;5054155;28;20094;-78
2022/02/15 03:18:56;;;;;;;8.37;2.53;;;7.00;98.40;;;;;;5054266;28;20613;-78
2022/02/15 03:21:22;;;;;;;6.33;2.73;;;7.00;98.50;;;;;;5054223;28;20104;-78
2022/02/15 03:23:48;;;;;;;7.50;2.33;;;7.00;98.50;;;;;;5054554;28;20028;-80
2022/02/15 03:26:14;;;;;;;5.17;2.30;;;7.00;98.30;;;;;;5036339;28;20031;-79
2022/02/15 03:28:40;;;;;;;9.47;1.67;;;7.00;98.40;;;;;;5054316;28;20560;-78
2022/02/15 03:31:07;;;;;;;7.23;1.73;;;6.90;98.30;;;;;;5053990;28;20143;-78
2022/02/15 03:33:33;;;;;;;7.23;2.33;;;7.00;98.30;;;;;;5036705;28;20465;-79
2022/02/15 03:36:00;;;;;;;5.33;2.27;;;7.00;98.60;;;;;;5053948;28;20029;-79
2022/02/15 03:38:25;;;;;;;11.77;3.00;;;7.00;98.40;;;;;;5053868;28;20037;-79
2022/02/15 03:43:36;;;;;;;9.30;2.85;;;7.00;98.50;;;;;;5053787;28;20028;-78
2022/02/15 03:46:01;;;;;;;10.20;2.33;;;7.00;98.40;;;;;;5036062;28;20020;-79
2022/02/15 03:48:27;;;;;;;7.80;2.80;;;7.10;98.40;;;;;;5053635;28;20358;-79
2022/02/15 03:50:52;;;;;;;7.90;2.50;;;7.00;98.40;;;;;;5053712;28;20458;-80
2022/02/15 03:53:18;;;;;;;6.63;2.67;;;7.00;98.60;;;;;;5036238;28;20029;-80
2022/02/15 03:55:45;;;;;;;10.80;3.33;;;7.10;98.40;;;;;;5053590;28;20041;-79
2022/02/15 03:58:10;;;;;;;8.43;3.10;;;7.10;98.40;;;;;;5054127;28;20049;-79
2022/02/15 04:00:37;;;;;;;8.60;2.67;;;7.10;98.40;;;;;;5053540;28;20064;-80
2022/02/15 04:03:04;;;;;;;9.07;3.70;;;7.00;98.30;;;;;;5053477;28;20071;-78
2022/02/15 04:05:29;;;;;;;9.97;3.20;;;7.10;98.40;;;;;;5053455;28;20056;-79
2022/02/15 04:07:55;;;;;;;8.03;3.40;;;7.10;98.30;;;;;;5053406;28;20059;-79
2022/02/15 04:10:21;;;;;;;11.50;3.70;;;7.00;98.30;;;;;;5035540;28;20032;-78
2022/02/15 04:12:47;;;;;;;8.40;3.17;;;7.10;98.40;;;;;;5053602;28;20509;-79
2022/02/15 04:15:14;;;;;;;8.50;3.00;;;7.10;98.40;;;;;;5035838;28;20048;-80
2022/02/15 04:17:40;;;;;;;7.23;2.73;;;7.10;98.30;;;;;;5035396;28;20028;-78
2022/02/15 04:20:07;;;;;;;8.00;3.00;;;7.10;98.40;;;;;;5053266;28;20111;-79
2022/02/15 04:22:33;;;;;;;11.20;3.47;;;7.10;98.30;;;;;;5053168;28;20033;-78
2022/02/15 04:25:02;;;;;;;12.97;3.70;;;7.10;98.30;;;;;;5053344;28;20028;-79
2022/02/15 04:27:28;;;;;;;10.60;3.40;;;7.10;98.30;;;;;;5053368;28;20040;-79
2022/02/15 04:29:54;;;;;;;9.83;3.97;;;7.10;98.30;;;;;;5053286;28;20064;-78
2022/02/15 04:32:19;;;;;;;13.87;5.40;;;7.10;98.30;;;;;;5035342;28;20064;-79
2022/02/15 04:34:45;;;;;;;14.23;5.03;;;7.10;98.40;;;;;;5053467;28;20032;-79
2022/02/15 04:37:11;;;;;;;10.00;4.57;;;7.10;98.30;;;;;;5035362;28;20025;-78
2022/02/15 04:39:37;;;;;;;10.93;4.80;;;7.10;98.40;;;;;;5053207;28;20032;-79
2022/02/15 04:42:03;;;;;;;12.37;5.37;;;7.10;98.50;;;;;;5035558;28;20037;-79
2022/02/15 04:44:29;;;;;;;7.70;4.10;;;7.10;98.40;;;;;;5053089;28;20025;-79
2022/02/15 04:46:55;;;;;;;12.43;5.77;;;7.10;98.40;;;;;;5053023;28;20091;-79
2022/02/15 04:49:20;;;;;;;12.93;5.63;;;7.10;98.50;;;;;;5035096;28;20036;-79
2022/02/15 04:51:46;;;;;;;16.17;6.03;;;7.10;98.40;;;;;;5053254;28;20032;-79
2022/02/15 04:54:12;;;;;;;13.63;5.57;;;7.10;98.50;;;;;;5035523;28;20029;-79
2022/02/15 04:56:38;;;;;;;13.13;5.20;;;7.10;98.50;;;;;;5052383;28;20037;-80
2022/02/15 04:59:03;;;;;;;12.47;4.97;;;7.20;98.50;;;;;;5052867;28;20082;-79
2022/02/15 05:01:29;;;;;;;9.90;4.63;;;7.10;98.40;;;;;;5051888;28;20036;-80
2022/02/15 05:03:55;;;;;;;11.30;5.27;;;7.10;98.70;;;;;;5053277;28;20076;-79
2022/02/15 05:06:20;;;;;;;10.33;5.43;;;7.20;98.50;;;;;;5053099;28;20029;-78
2022/02/15 05:08:46;;;;;;;12.90;5.77;;;7.20;98.70;;;;;;5051761;28;20072;-79
2022/02/15 05:11:12;;;;;;;12.73;6.20;;;7.20;98.40;;;;;;5052968;28;20056;-79
2022/02/15 05:13:38;;;;;;;15.87;7.23;;;7.20;98.50;;;;;;5052939;28;20025;-81
2022/02/15 05:16:04;;;;;;;15.73;7.47;;;7.20;98.60;;;;;;5034796;28;20036;-79
2022/02/15 05:18:30;;;;;;;17.33;7.67;;;7.20;98.60;;;;;;5052716;28;20108;-79
2022/02/15 05:21:01;;;;;;;14.20;6.87;;;7.20;98.60;;;;;;5052888;28;20106;-78
2022/02/15 05:23:30;;;;;;;16.07;7.37;;;7.20;98.60;;;;;;5051597;28;20091;-77
2022/02/15 05:25:57;;;;;;;15.60;8.27;;;7.30;98.60;;;;;;5054924;28;20124;-79
2022/02/15 05:28:23;;;;;;;15.70;7.80;;;7.30;98.60;;;;;;5056309;28;20535;-78
2022/02/15 05:30:48;;;;;;;18.30;8.40;;;7.30;98.60;;;;;;5055094;28;20021;-78
2022/02/15 05:33:14;;;;;;;15.57;8.63;;;7.20;98.60;;;;;;5038571;28;20355;-80
2022/02/15 05:35:40;;;;;;;16.73;10.13;;;7.20;98.60;;;;;;5056213;28;20021;-79
2022/02/15 05:38:06;;;;;;;17.50;9.77;;;7.20;98.80;;;;;;5055157;28;20025;-79
2022/02/15 05:40:31;;;;;;;21.40;11.03;;;7.20;98.80;;;;;;5056457;28;20029;-78
2022/02/15 05:42:57;;;;;;;17.73;10.23;;;7.30;98.80;;;;;;5037945;28;20036;-79
2022/02/15 05:45:23;;;;;;;15.77;9.50;;;7.20;98.90;;;;;;5056017;28;20484;-79
2022/02/15 05:47:49;;;;;;;20.23;10.77;;;7.20;99.10;;;;;;5047504;28;20028;-78
2022/02/15 05:52:59;;;;;;;20.80;11.45;;;7.20;99.10;;;;;;5056192;28;20410;-78
2022/02/15 05:55:24;;;;;;;23.80;11.93;;;7.20;99.20;;;;;;5054621;28;20041;-79
2022/02/15 05:57:50;;;;;;;22.20;10.93;;;7.20;99.30;;;;;;5035934;28;20029;-78
2022/02/15 06:00:17;;;;;;;22.93;12.60;;;7.20;99.10;;;;;;5034521;28;20657;-77
2022/02/15 06:02:43;;;;;;;19.90;10.87;;;7.20;99.40;;;;;;5053197;28;20032;-79
2022/02/15 06:05:09;;;;;;;23.03;11.87;;;7.20;99.40;;;;;;5056088;28;20741;-78
2022/02/15 06:07:35;;;;;;;23.83;13.37;;;7.20;99.40;;;;;;5054952;28;20124;-78
2022/02/15 06:10:01;;;;;;;24.73;13.93;;;7.20;99.60;;;;;;5038041;28;20648;-79
2022/02/15 06:12:26;;;;;;;24.83;13.43;;;7.20;99.70;;;;;;5055338;28;20029;-77
2022/02/15 06:14:52;;;;;;;21.27;12.93;;;7.20;99.70;;;;;;5037651;28;20388;-79
2022/02/15 06:17:17;;;;;;;22.10;12.57;;;7.20;99.60;;;;;;5055490;28;20484;-78
2022/02/15 06:19:43;;;;;;;21.50;12.43;;;7.20;99.70;;;;;;5055270;28;20029;-78
2022/02/15 06:22:09;;;;;;;25.17;13.60;;;7.20;99.70;;;;;;5055317;28;20041;-78
2022/02/15 06:24:34;;;;;;;26.20;14.20;;;7.20;99.80;;;;;;5055272;28;20036;-78
2022/02/15 06:27:01;;;;;;;25.20;13.03;;;7.20;99.90;;;;;;5054942;28;20037;-79
2022/02/15 06:29:29;;;;;;;24.23;13.17;;;7.20;99.80;;;;;;5037441;28;20036;-78
2022/02/15 06:31:55;;;;;;;23.87;12.77;;;7.20;99.90;;;;;;5055416;28;20032;-78
2022/02/15 06:34:22;;;;;;;23.13;12.93;;;7.20;99.90;;;;;;5055178;28;20029;-78
2022/02/15 06:36:47;;;;;;;25.87;13.47;;;7.20;99.90;;;;;;5053781;28;20053;-79
2022/02/15 06:39:13;;;;;;;28.17;14.73;;;7.20;99.90;;;;;;5054962;28;20059;-78
2022/02/15 06:41:39;;;;;;;30.33;14.50;;;7.20;99.90;;;;;;5054965;28;20037;-78
2022/02/15 06:44:05;;;;;;;24.40;13.60;;;7.20;99.90;;;;;;5055377;28;20044;-77
2022/02/15 06:46:34;;;;;;;26.20;14.13;;;7.30;99.90;;;;;;5054947;28;20032;-78
2022/02/15 06:49:00;;;;;;;25.47;14.27;;;7.30;99.90;;;;;;5037157;28;20116;-79
2022/02/15 06:51:25;;;;;;;22.63;13.00;;;7.30;99.90;;;;;;5054794;28;20056;-78
2022/02/15 06:53:51;;;;;;;22.53;12.97;;;7.30;99.90;;;;;;5054999;28;20021;-78
2022/02/15 06:56:17;;;;;;;25.33;13.37;;;7.40;99.90;;;;;;5053968;28;20041;-78
2022/02/15 06:58:42;;;;;;;26.10;13.57;;;7.30;99.90;;;;;;5054205;28;20057;-78
2022/02/15 07:01:11;;;;;;;21.83;12.83;;;7.30;99.90;;;;;;5054412;28;20131;-79
2022/02/15 07:03:37;;;;;;;30.30;13.90;;;7.30;99.90;;;;;;5054468;28;20033;-78
2022/02/15 07:06:03;;;;;;;28.23;14.03;;;7.40;99.90;;;;;;5050219;28;20025;-79
2022/02/15 07:08:29;;;;;;;24.30;13.53;;;7.30;99.90;;;;;;5054278;28;20028;-77
2022/02/15 07:10:56;;;;;;;25.73;14.07;;;7.30;99.90;;;;;;5053114;28;20027;-76
2022/02/15 07:13:23;;;;;;;21.27;11.47;;;7.40;99.90;;;;;;5054207;28;20031;-78
2022/02/15 07:15:48;;;;;;;25.00;12.87;;;7.40;99.90;;;;;;5055004;28;20029;-77
2022/02/15 07:18:15;;;;;;;19.87;12.53;;;7.40;99.90;;;;;;5052994;28;20051;-77
2022/02/15 07:20:40;;;;;;;20.57;11.83;;;7.40;99.90;;;;;;5054085;28;20492;-77
2022/02/15 07:23:08;;;;;;;21.93;11.23;;;7.40;99.90;;;;;;5052675;28;20021;-77
2022/02/15 07:25:34;;;;;;;22.77;12.60;;;7.40;99.90;;;;;;5053414;28;20052;-78
2022/02/15 07:28:03;;;;;;;26.47;12.40;;;7.40;99.90;;;;;;5054260;28;20025;-78
2022/02/15 07:30:29;;;;;;;27.63;12.73;;;7.40;99.90;;;;;;5054018;28;20028;-77
2022/02/15 07:32:55;;;;;;;21.60;11.80;;;7.40;99.90;;;;;;5054362;28;20079;-79
2022/02/15 07:35:21;;;;;;;24.97;12.03;;;7.50;99.90;;;;;;5053973;28;20032;-78
2022/02/15 07:37:48;;;;;;;23.40;11.73;;;7.40;99.90;;;;;;5052647;28;20056;-78
2022/02/15 07:40:18;;;;;;;24.60;11.53;;;7.50;99.90;;;;;;5054009;28;20033;-78
2022/02/15 07:42:43;;;;;;;26.97;11.87;;;7.50;99.90;;;;;;5054255;28;20033;-78
2022/02/15 07:45:09;;;;;;;25.93;12.10;;;7.50;99.90;;;;;;5052594;28;20033;-77
2022/02/15 07:47:35;;;;;;;26.57;12.07;;;7.50;99.90;;;;;;5052413;28;20037;-78
2022/02/15 07:50:00;;;;;;;27.50;12.57;;;7.40;99.90;;;;;;5053815;28;20029;-78
2022/02/15 07:52:26;;;;;;;23.73;11.83;;;7.50;99.90;;;;;;5052248;28;20491;-78
2022/02/15 07:54:53;;;;;;;30.10;12.23;;;7.50;99.90;;;;;;5053384;28;20062;-78
2022/02/15 07:57:21;;;;;;;27.73;11.50;;;7.60;99.90;;;;;;5053540;28;20029;-77
2022/02/15 07:59:47;;;;;;;23.30;12.03;;;7.60;99.90;;;;;;5052615;28;20470;-77
2022/02/15 08:02:12;;;;;;;25.17;11.57;;;7.50;99.90;;;;;;5052393;28;20036;-77
2022/02/15 08:04:38;;;;;;;23.47;10.40;;;7.40;99.90;;;;;;5052236;28;20024;-77
2022/02/15 08:07:04;;;;;;;23.10;9.40;;;7.40;99.90;;;;;;5053615;28;20035;-77
2022/02/15 08:09:30;;;;;;;26.07;10.47;;;7.40;99.90;;;;;;5051994;28;20033;-78
2022/02/15 08:11:57;;;;;;;22.83;10.13;;;7.40;99.90;;;;;;5053157;28;20490;-77
2022/02/15 08:14:23;;;;;;;28.77;9.70;;;7.50;99.90;;;;;;5053914;28;20362;-78
2022/02/15 08:16:50;;;;;;;21.70;9.10;;;7.50;99.90;;;;;;5053516;28;20439;-77
2022/02/15 08:19:16;;;;;;;21.67;8.40;;;7.60;99.90;;;;;;5052011;28;20035;-79
2022/02/15 08:21:42;;;;;;;23.90;8.23;;;7.70;99.90;;;;;;5053359;28;20021;-77
2022/02/15 08:24:08;;;;;;;20.33;9.10;;;7.70;99.90;;;;;;5053789;28;20029;-81
2022/02/15 08:26:33;;;;;;;22.00;7.63;;;7.70;99.90;;;;;;5053466;28;20032;-78
2022/02/15 08:28:59;;;;;;;22.90;7.67;;;7.70;99.90;;;;;;5051983;28;20044;-77
2022/02/15 08:31:24;;;;;;;20.80;9.00;;;7.80;99.90;;;;;;5053397;28;20351;-77
2022/02/15 08:33:50;;;;;;;19.80;7.60;;;7.80;99.70;;;;;;5052446;28;20123;-76
2022/02/15 08:36:16;;;;;;;22.00;7.03;;;7.80;99.60;;;;;;5051786;28;20025;-76
2022/02/15 08:38:41;;;;;;;21.93;7.10;;;7.80;99.60;;;;;;5053230;28;20067;-77
2022/02/15 08:41:07;;;;;;;22.17;7.20;;;7.80;99.50;;;;;;5053029;28;20469;-78
2022/02/15 08:43:32;;;;;;;17.17;6.00;;;7.80;99.50;;;;;;5053691;28;20033;-77
2022/02/15 08:45:59;;;;;;;20.67;5.77;;;7.80;99.50;;;;;;5052124;28;20481;-77
2022/02/15 08:48:26;;;;;;;16.30;4.60;;;7.90;99.50;;;;;;5052665;28;20027;-77
2022/02/15 08:50:51;;;;;;;13.47;5.20;;;7.90;99.40;;;;;;5053097;28;20021;-77
2022/02/15 08:53:17;;;;;;;14.90;5.10;;;8.00;99.20;;;;;;5052859;28;20531;-77
2022/02/15 08:55:43;;;;;;;19.90;4.67;;;8.00;99.00;;;;;;5051692;28;20067;-78
2022/02/15 08:58:08;;;;;;;16.67;4.60;;;8.10;98.80;;;;;;5052985;28;20029;-77
2022/02/15 09:00:35;;;;;;;16.30;4.70;;;8.10;98.50;;;;;;5054717;28;20380;-77
2022/02/15 09:03:00;;;;;;;12.57;5.03;;;8.20;98.10;;;;;;5055915;28;20041;-78
2022/02/15 09:05:26;;;;;;;13.03;4.83;;;8.20;97.90;;;;;;5055587;28;20025;-79
2022/02/15 09:07:52;;;;;;;12.47;3.77;;;8.20;97.60;;;;;;5055481;28;20033;-77
2022/02/15 09:10:17;;;;;;;11.23;3.57;;;8.20;97.30;;;;;;5056720;28;20091;-77
2022/02/15 09:12:43;;;;;;;14.13;4.27;;;8.10;97.00;;;;;;5055466;28;20533;-78
2022/02/15 09:15:12;;;;;;;17.73;4.40;;;8.10;97.50;;;;;;5055412;28;20025;-77
2022/02/15 09:17:39;;;;;;;13.40;4.23;;;8.30;97.40;;;;;;5056708;28;20017;-77
2022/02/15 09:20:13;;;;;;;13.47;4.03;;;8.20;97.40;;;;;;5056684;28;20025;-77
2022/02/15 09:22:40;;;;;;;9.80;3.95;;;8.20;97.40;;;;;;5056406;28;20477;-77
2022/02/15 09:25:06;;;;;;;18.00;5.40;;;8.30;97.30;;;;;;5056559;28;20171;-77
2022/02/15 09:27:32;;;;;;;17.27;4.40;;;8.30;97.20;;;;;;5055378;28;20056;-77
2022/02/15 09:29:57;;;;;;;13.13;3.40;;;8.40;97.00;;;;;;5056292;28;20465;-79
2022/02/15 09:32:23;;;;;;;13.37;3.50;;;8.40;96.80;;;;;;5055098;28;20021;-79
2022/02/15 09:34:49;;;;;;;11.67;3.93;;;8.50;96.50;;;;;;5056162;28;20044;-77
2022/02/15 09:37:15;;;;;;;8.60;3.00;;;8.60;96.50;;;;;;5056327;28;20025;-77
2022/02/15 09:39:40;;;;;;;11.43;3.83;;;8.70;96.10;;;;;;5056171;28;20112;-78
2022/02/15 09:42:06;;;;;;;12.87;4.23;;;8.70;95.80;;;;;;5056214;28;20476;-77
2022/02/15 09:44:32;;;;;;;10.70;3.10;;;8.70;95.80;;;;;;5056356;28;20033;-78
2022/02/15 09:46:58;;;;;;;17.23;2.70;;;8.70;95.50;;;;;;5055042;28;20036;-77
2022/02/15 09:52:13;;;;;;;15.03;3.87;;;8.60;94.80;;;;;;5055705;28;20114;-79
2022/02/15 09:54:40;;;;;;;13.80;3.53;;;8.70;94.40;;;;;;5054797;28;20063;-77
2022/02/15 09:57:06;;;;;;;14.83;3.60;;;8.60;94.20;;;;;;5055951;28;20053;-77
2022/02/15 09:59:32;;;;;;;17.23;2.97;;;8.60;94.00;;;;;;5054808;28;20116;-77
2022/02/15 10:02:00;;;;;;;12.60;2.73;;;8.60;94.30;;;;;;5056134;28;20067;-77
2022/02/15 10:04:34;;;;;;;11.07;3.10;;;8.80;94.80;;;;;;5054606;28;20521;-77
2022/02/15 10:07:05;;;;;;;12.13;2.42;;;9.20;94.60;;;;;;5055803;28;20029;-78
2022/02/15 10:09:32;;;;;;;11.13;2.80;;;9.70;94.50;;;;;;5055631;28;20025;-77
2022/02/15 10:12:18;;;;;;;11.00;1.83;;;10.20;94.30;;;;;;5055219;28;20041;-78
2022/02/15 10:14:47;;;;;;;8.43;1.77;;;10.40;92.60;;;;;;5055551;28;20029;-77
2022/02/15 10:17:15;;;;;;;12.17;2.03;;;10.40;92.30;;;;;;5055338;28;21204;-78
2022/02/15 10:19:43;;;;;;;6.90;1.40;;;10.30;90.20;;;;;;5055592;28;20112;-77
2022/02/15 10:22:09;;;;;;;11.37;1.40;;;10.10;88.80;;;;;;5055522;28;20037;-80
2022/02/15 10:24:39;;;;;;;9.88;1.13;;;10.10;86.40;;;;;;5055617;28;20063;-77
2022/02/15 10:27:12;;;;;;;5.53;0.88;;;10.30;87.70;;;;;;5055373;28;20061;-78
2022/02/15 10:29:40;;;;;;;6.60;1.02;;;10.90;87.60;;;;;;5055248;28;20040;-78
2022/02/15 10:32:13;;;;;;;7.18;0.90;;;11.60;84.50;;;;;;5055061;28;20055;-81
2022/02/15 10:34:56;;;;;;;7.80;0.70;;;12.30;83.10;;;;;;5055380;28;20707;-78
2022/02/15 10:37:33;;;;;;;8.18;1.33;;;13.00;81.40;;;;;;5054363;28;20021;-78
2022/02/15 10:40:00;;;;;;;7.53;1.17;;;13.30;78.50;;;;;;5055283;28;20021;-77
2022/02/15 10:42:28;;;;;;;6.32;1.20;;;13.80;78.60;;;;;;5055475;28;20032;-78
2022/02/15 10:45:08;;;;;;;7.28;1.13;;;14.10;75.60;;;;;;5054165;28;20024;-78
2022/02/15 10:47:40;;;;;;;9.73;1.05;;;14.20;71.70;;;;;;5055091;28;20025;-78
2022/02/15 10:50:11;;;;;;;5.43;0.85;;;13.80;68.90;;;;;;5055313;28;20103;-77
2022/02/15 10:52:37;;;;;;;8.35;1.30;;;13.30;68.90;;;;;;5054977;28;20450;-77
2022/02/15 10:55:04;;;;;;;9.20;1.52;;;13.00;70.70;;;;;;5054607;28;20102;-77
2022/02/15 10:57:29;;;;;;;8.77;1.08;;;12.60;70.60;;;;;;5054677;28;20029;-77
2022/02/15 10:59:57;;;;;;;7.50;0.90;;;12.50;71.80;;;;;;5054520;28;20033;-78
2022/02/15 11:02:30;;;;;;;11.13;1.58;;;12.60;71.50;;;;;;5054752;28;20104;-82
2022/02/15 11:05:02;;;;;;;8.50;1.60;;;12.50;69.60;;;;;;5054834;28;20480;-77
2022/02/15 11:07:31;;;;;;;7.47;0.93;;;12.40;70.60;;;;;;5054656;28;20070;-83
2022/02/15 11:10:11;;;;;;;8.55;1.13;;;12.70;71.70;;;;;;5054572;28;20584;-77
2022/02/15 11:12:42;;;;;;;4.70;0.70;;;13.40;71.80;;;;;;5054517;28;20029;-77
2022/02/15 11:15:08;;;;;;;7.13;1.15;;;14.00;70.40;;;;;;5053228;28;20033;-77
2022/02/15 11:17:33;;;;;;;3.90;1.00;;;14.20;67.70;;;;;;5054366;28;20035;-77
2022/02/15 11:20:02;;;;;;;8.85;1.25;;;14.10;64.20;;;;;;5054161;28;20033;-77
2022/02/15 11:22:27;;;;;;;5.40;0.70;;;13.80;64.20;;;;;;5053509;28;20120;-77
2022/02/15 11:24:53;;;;;;;5.97;0.70;;;13.50;64.30;;;;;;5054278;28;20116;-77
2022/02/15 11:27:21;;;;;;;5.40;0.73;;;13.30;65.20;;;;;;5054215;28;20033;-77
2022/02/15 11:29:54;;;;;;;6.65;0.80;;;13.10;64.60;;;;;;5054323;28;20235;-77
2022/02/15 11:32:33;;;;;;;6.35;1.13;;;12.80;65.80;;;;;;5054359;28;20037;-78
2022/02/15 11:35:09;;;;;;;4.03;0.60;;;12.80;65.00;;;;;;5054039;28;20032;-78
2022/02/15 11:37:35;;;;;;;6.07;0.80;;;12.80;64.10;;;;;;5053999;28;20036;-77
2022/02/15 11:40:06;;;;;;;4.38;0.60;;;12.90;65.50;;;;;;5053867;28;20025;-77
2022/02/15 11:42:50;;;;;;;5.15;1.00;;;13.30;65.90;;;;;;5053840;28;20055;-77
2022/02/15 11:45:29;;;;;;;7.00;0.73;;;14.00;65.30;;;;;;5053845;28;20094;-77
2022/02/15 11:48:04;;;;;;;4.55;0.80;;;14.40;62.20;;;;;;5054083;28;20064;-78
2022/02/15 11:50:41;;;;;;;6.75;0.70;;;14.90;60.70;;;;;;5053971;28;20025;-77
2022/02/15 11:53:07;;;;;;;5.05;0.68;;;15.40;60.80;;;;;;5053946;28;20032;-78
2022/02/15 11:55:35;;;;;;;5.30;1.02;;;15.90;57.70;;;;;;5053748;28;20037;-77
2022/02/15 11:58:01;;;;;;;5.95;0.75;;;16.30;58.40;;;;;;5053776;28;20035;-78
2022/02/15 12:00:34;;;;;;;4.00;0.68;;;16.50;56.70;;;;;;5053754;28;20029;-80
2022/02/15 12:03:00;;;;;;;6.20;0.80;;;16.50;54.30;;;;;;5052612;28;20029;-77
2022/02/15 12:05:27;;;;;;;3.35;0.70;;;16.30;53.50;;;;;;5053503;28;20025;-78
2022/02/15 12:07:54;;;;;;;4.90;1.17;;;16.20;54.50;;;;;;5053748;28;20025;-77
2022/02/15 12:10:20;;;;;;;7.82;0.90;;;16.20;54.20;;;;;;5053875;28;20029;-77
2022/02/15 12:12:50;;;;;;;6.07;0.90;;;16.50;55.00;;;;;;5053602;28;20052;-77
2022/02/15 12:15:15;;;;;;;4.82;1.10;;;16.70;53.90;;;;;;5052922;28;20025;-77
2022/02/15 12:17:46;;;;;;;2.92;0.57;;;16.90;53.80;;;;;;5052420;28;20480;-78
2022/02/15 12:20:13;;;;;;;5.53;0.88;;;17.00;52.40;;;;;;5052122;28;20025;-78
2022/02/15 12:22:41;;;;;;;4.43;0.80;;;17.10;51.80;;;;;;5053298;28;20111;-77
2022/02/15 12:25:08;;;;;;;3.42;0.82;;;17.10;51.50;;;;;;5052160;28;20029;-77
2022/02/15 12:27:34;;;;;;;7.30;1.20;;;17.10;52.10;;;;;;5053795;28;20025;-77
2022/02/15 12:30:00;;;;;;;4.03;1.00;;;17.30;51.50;;;;;;5053184;28;20036;-78
2022/02/15 12:32:30;;;;;;;7.15;1.10;;;17.30;51.70;;;;;;5052228;28;20409;-77
2022/02/15 12:34:56;;;;;;;5.38;1.02;;;17.40;51.80;;;;;;5055669;28;20021;-78
2022/02/15 12:37:25;;;;;;;7.75;1.10;;;17.50;51.40;;;;;;5057119;28;20031;-78
2022/02/15 12:39:55;;;;;;;5.53;1.10;;;17.70;51.00;;;;;;5057611;28;20040;-77
2022/02/15 12:42:23;;;;;;;5.13;0.73;;;17.90;49.90;;;;;;5057272;28;20465;-78
2022/02/15 12:45:10;;;;;;;3.08;0.68;;;17.90;48.90;;;;;;5056205;28;20029;-78
2022/02/15 12:47:43;;;;;;;4.10;0.68;;;17.60;47.80;;;;;;5055823;28;20025;-78
2022/02/15 12:50:10;;;;;;;4.37;1.00;;;17.10;48.60;;;;;;5057258;28;20029;-79
2022/02/15 12:52:38;;;;;;;7.57;1.10;;;16.80;49.10;;;;;;5057198;28;20052;-78
2022/02/15 12:55:23;;;;;;;4.15;1.00;;;16.50;50.10;;;;;;5057039;28;20496;-77
2022/02/15 12:57:50;;;;;;;5.90;1.00;;;16.00;50.40;;;;;;5039201;28;20040;-80